Aérodrome :
LOGIN :

S'inscrire | Disclaimer

   EN    FR    IT 

 










Légende :    VFR   VFR Marginal   IFR   IFR Intensif   IFR Très Intensif
Visi : 
Plafond : 
>= 8 km
>= 3000ft
5 à 8 km
1000 à 3000 ft
1500m à 5 km
500 à 1000 ft
800 à 1500m
200 à 500 ft
< 800m
< 200 ft
Symboles :   Orages  Brouillard  Fortes neiges  Fortes précipitations  Vent > 20 kt
SIGMETs :   Divers  Orages  Givrage  Turbulence  Onde Orograph.  Cendres Volcan.







- Altitude de l'aérodrome : 645 ft
- Code IATA : DLE
- Voir les cartes d'approche


LFGJ - Dole Tavaux

DERNIER METAR :
  • 180600Z AUTO 35005KT 9999 OVC009 05/04 Q1025 BECMG BKN012

METARs EXPIRÉS :
  • 180530Z AUTO 01005KT 9999 OVC009 05/04 Q1024
  • 180500Z AUTO 02007KT 9999 OVC008 05/04 Q1025
  • 180430Z AUTO 01006KT 9000 OVC007 05/04 Q1025
  • 180400Z AUTO 02008KT 350V050 9000 OVC007 05/04 Q1025
  • 180330Z AUTO 01007KT 8000 OVC006 05/04 Q1025

TAF TAF LFGJ
Valide du 18 à 06h jusqu'au 18 à 15h UTC


180500Z 1806/1815 01006KT 9999 BKN008
BECMG 1806/1809 BKN012
BECMG 1809/1812 BKN020
Pas de NOTAMs connus pour ce terrain.



MET'MAP, la Météo Aéronautique d'un coup d'oeil ! - Copyright ORBIFLY Décembre 2007 - Disclaimer

ORBIFLY MET'MAP TEAM :

Programmation & Développement : Alexandra Zaïnal
Conception & Développement : Baudouin d'Aumeries
Co-Programmation & Développement : Marc-Olivier Méhu
Soutien technique & logistique : Manuel Goepfert

Contact : metmap@orbifly.com




SOURCES & CREDITS :

   NOAA